Time;durP1;ratioP1;P1;durP2;ratioP2;P2;SDS_P1;SDS_P2;PMS_P1;PMS_P2;Temp;Humidity;BMP_temperature;BMP_pressure;BME280_temperature;BME280_humidity;BME280_pressure;Samples;Min_cycle;Max_cycle;Signal;HPM_P1;HPM_P2
2022/05/20 00:01:04;;;;;;;;;;;19.50;98.10;;;;;;5033152;28;19921;-96
2022/05/20 00:03:31;;;;;;;;;;;19.50;98.30;;;;;;5035009;28;19913;-96
2022/05/20 00:05:59;;;;;;;;;;;19.40;98.30;;;;;;5036647;28;19913;-96
2022/05/20 00:08:26;;;;;;;;;;;19.40;98.40;;;;;;5041605;28;19914;-96
2022/05/20 00:10:55;;;;;;;;;;;19.40;98.40;;;;;;5036490;28;19955;-96
2022/05/20 00:13:22;;;;;;;;;;;19.40;98.40;;;;;;5036873;28;19948;-96
2022/05/20 00:15:50;;;;;;;;;;;19.40;98.30;;;;;;5047902;28;19921;-96
2022/05/20 00:18:18;;;;;;;;;;;19.40;98.20;;;;;;5050167;28;19993;-96
2022/05/20 00:20:45;;;;;;;;;;;19.30;98.10;;;;;;5167961;22;19955;-78
2022/05/20 00:25:48;;;;;;;;;;;19.30;98.10;;;;;;4983252;28;20029;-77
2022/05/20 00:28:28;;;;;;;;;;;19.30;98.10;;;;;;4985341;28;19948;-77
2022/05/20 00:31:03;;;;;;;;;;;19.30;98.00;;;;;;4981034;28;20028;-77
2022/05/20 00:33:33;;;;;;;;;;;19.20;98.00;;;;;;4995012;28;19968;-78
2022/05/20 00:36:21;;;;;;;;;;;19.20;97.90;;;;;;5003514;28;19932;-77
2022/05/20 00:38:56;;;;;;;;;;;19.20;97.90;;;;;;5000810;28;20016;-76
2022/05/20 00:41:23;;;;;;;;;;;19.20;97.90;;;;;;5002181;28;19957;-77
2022/05/20 00:43:54;;;;;;;;;;;19.10;97.90;;;;;;5002077;28;19925;-77
2022/05/20 00:46:30;;;;;;;;;;;19.10;97.80;;;;;;4999086;28;20303;-77
2022/05/20 00:49:13;;;;;;;;;;;19.10;97.80;;;;;;5001198;28;20306;-77
2022/05/20 00:51:42;;;;;;;;;;;19.10;97.80;;;;;;5000789;28;20332;-77
2022/05/20 00:54:14;;;;;;;;;;;19.10;97.80;;;;;;4995066;28;20339;-77
2022/05/20 00:56:54;;;;;;;;;;;19.00;97.80;;;;;;4999489;28;20024;-77
2022/05/20 00:59:33;;;;;;;;;;;19.00;97.80;;;;;;4999377;28;19925;-77
2022/05/20 01:02:18;;;;;;;;;;;19.00;97.70;;;;;;4998703;28;20065;-77
2022/05/20 01:04:48;;;;;;;;;;;19.00;97.70;;;;;;5002558;28;20303;-78
2022/05/20 01:07:16;;;;;;;;;;;19.00;97.70;;;;;;5003678;28;19932;-78
2022/05/20 01:09:48;;;;;;;;;;;19.00;97.70;;;;;;4997003;28;19930;-76
2022/05/20 01:12:18;;;;;;;;;;;18.90;97.60;;;;;;4999735;28;19925;-77
2022/05/20 01:15:00;;;;;;;;;;;18.90;97.70;;;;;;4995247;28;19948;-76
2022/05/20 01:17:34;;;;;;;;;;;18.90;97.60;;;;;;4999800;28;20043;-78
2022/05/20 01:20:08;;;;;;;;;;;18.90;97.70;;;;;;5000603;28;19961;-76
2022/05/20 01:22:40;;;;;;;;;;;18.80;97.70;;;;;;5000417;28;19953;-76
2022/05/20 01:25:11;;;;;;;;;;;;;;;;;;4998444;28;19946;-78
2022/05/20 01:27:42;;;;;;;;;;;18.80;97.40;;;;;;4998019;28;20012;-76
2022/05/20 01:30:12;;;;;;;;;;;18.80;97.60;;;;;;5004764;28;20403;-77
2022/05/20 01:32:41;;;;;;;;;;;18.80;97.70;;;;;;4994981;28;20339;-78
2022/05/20 01:35:16;;;;;;;;;;;18.70;97.60;;;;;;5001049;28;19932;-77
2022/05/20 01:38:02;;;;;;;;;;;18.70;97.60;;;;;;5001094;28;19934;-77
2022/05/20 01:40:42;;;;;;;;;;;18.70;97.60;;;;;;4990825;28;19929;-77
2022/05/20 01:46:08;;;;;;;;;;;18.70;97.70;;;;;;4997761;28;19921;-76
2022/05/20 01:48:42;;;;;;;;;;;18.70;97.70;;;;;;5003400;28;19932;-77
2022/05/20 01:51:17;;;;;;;;;;;18.60;97.60;;;;;;4996231;28;20001;-77
2022/05/20 01:53:49;;;;;;;;;;;18.60;97.70;;;;;;5000117;28;19929;-77
2022/05/20 01:56:23;;;;;;;;;;;18.60;97.60;;;;;;4995730;28;19929;-76
2022/05/20 01:58:54;;;;;;;;;;;18.60;97.60;;;;;;4995979;28;19932;-77
2022/05/20 02:01:33;;;;;;;;;;;18.60;97.60;;;;;;5001318;28;20020;-77
2022/05/20 02:04:03;;;;;;;;;;;18.60;97.60;;;;;;4999528;28;19932;-77
2022/05/20 02:09:21;;;;;;;;;;;18.50;97.50;;;;;;4997310;28;20069;-77
2022/05/20 02:11:52;;;;;;;;;;;18.50;97.50;;;;;;4997742;28;19926;-77
2022/05/20 02:14:29;;;;;;;;;;;18.50;97.50;;;;;;4998944;28;19929;-77
2022/05/20 02:17:06;;;;;;;;;;;18.40;97.40;;;;;;5008870;28;19926;-77
2022/05/20 02:19:35;;;;;;;;;;;18.40;97.50;;;;;;4992552;28;19933;-77
2022/05/20 02:22:08;;;;;;;;;;;18.40;97.40;;;;;;4997978;28;19929;-77
2022/05/20 02:24:44;;;;;;;;;;;18.40;97.40;;;;;;4997572;28;20426;-77
2022/05/20 02:27:21;;;;;;;;;;;18.40;97.40;;;;;;4992266;28;19983;-77
2022/05/20 02:30:03;;;;;;;;;;;18.30;97.40;;;;;;4997778;28;20289;-77
2022/05/20 02:32:32;;;;;;;;;;;18.40;97.40;;;;;;4996785;28;19929;-76
2022/05/20 02:35:00;;;;;;;;;;;18.30;97.40;;;;;;4995831;28;20376;-76
2022/05/20 02:37:32;;;;;;;;;;;18.30;97.30;;;;;;4996698;28;20513;-76
2022/05/20 02:40:09;;;;;;;;;;;18.30;97.40;;;;;;4998210;28;21596;-77
2022/05/20 02:42:37;;;;;;;;;;;18.30;97.40;;;;;;4996578;28;20011;-76
2022/05/20 02:45:09;;;;;;;;;;;18.20;97.30;;;;;;4995565;28;20020;-77
2022/05/20 02:47:39;;;;;;;;;;;18.30;97.50;;;;;;4996689;28;20359;-77
2022/05/20 02:50:07;;;;;;;;;;;18.20;97.40;;;;;;4997318;28;19941;-77
2022/05/20 02:52:37;;;;;;;;;;;18.20;97.40;;;;;;4991370;28;20436;-77
2022/05/20 02:55:05;;;;;;;;;;;18.20;97.50;;;;;;5004599;28;19926;-76
2022/05/20 02:57:37;;;;;;;;;;;18.20;97.50;;;;;;5002595;28;19934;-76
2022/05/20 03:05:42;;;;;;;;;;;18.10;97.40;;;;;;5004106;28;19961;-76
2022/05/20 03:08:12;;;;;;;;;;;18.10;97.40;;;;;;5003746;28;19949;-77
2022/05/20 03:10:41;;;;;;;;;;;18.10;97.50;;;;;;5000324;28;19933;-77
2022/05/20 03:13:12;;;;;;;;;;;18.10;97.50;;;;;;5000775;28;19933;-77
2022/05/20 03:15:50;;;;;;;;;;;18.10;97.50;;;;;;5002642;28;19929;-77
2022/05/20 03:18:20;;;;;;;;;;;18.10;97.50;;;;;;5005643;28;19980;-76
2022/05/20 03:20:52;;;;;;;;;;;18.00;97.40;;;;;;5003935;28;19949;-76
2022/05/20 03:23:22;;;;;;;;;;;18.00;97.40;;;;;;5002679;28;19952;-76
2022/05/20 03:25:51;;;;;;;;;;;18.00;97.40;;;;;;5080586;22;19924;-74
2022/05/20 03:31:11;;;;;;;;;;;17.90;97.30;;;;;;5036953;28;19982;-77
2022/05/20 03:33:42;;;;;;;;;;;17.90;97.40;;;;;;5025336;28;19998;-77
2022/05/20 03:36:09;;;;;;;;;;;17.90;97.30;;;;;;5017866;28;19961;-76
2022/05/20 03:38:42;;;;;;;;;;;17.90;97.40;;;;;;5013473;28;19933;-77
2022/05/20 03:41:12;;;;;;;;;;;17.90;97.40;;;;;;5012692;28;20407;-76
2022/05/20 03:43:43;;;;;;;;;;;17.90;97.40;;;;;;5016027;28;19933;-77
2022/05/20 03:46:10;;;;;;;;;;;17.90;97.40;;;;;;5008343;28;19984;-76
2022/05/20 03:48:37;;;;;;;;;;;17.80;97.40;;;;;;5018674;28;20387;-78
2022/05/20 03:51:11;;;;;;;;;;;17.80;97.40;;;;;;5020890;28;19925;-76
2022/05/20 03:53:38;;;;;;;;;;;17.80;97.40;;;;;;5022178;28;20369;-77
2022/05/20 03:56:07;;;;;;;;;;;17.80;97.40;;;;;;5013010;28;20533;-77
2022/05/20 03:58:37;;;;;;;;;;;17.80;97.40;;;;;;5007454;28;19972;-77
2022/05/20 04:03:50;;;;;;;;;;;17.80;97.80;;;;;;5020695;28;20277;-77
2022/05/20 04:06:17;;;;;;;;;;;17.80;98.30;;;;;;5012749;28;19979;-78
2022/05/20 04:08:44;;;;;;;;;;;17.70;98.40;;;;;;5019655;28;19979;-77
2022/05/20 04:11:18;;;;;;;;;;;;;;;;;;5020681;28;19933;-76
2022/05/20 04:13:49;;;;;;;;;;;17.70;97.90;;;;;;5020972;28;19932;-77
2022/05/20 04:16:23;;;;;;;;;;;17.70;98.10;;;;;;5010940;28;19933;-77
2022/05/20 04:18:52;;;;;;;;;;;17.70;98.00;;;;;;5018779;28;20013;-77
2022/05/20 04:21:22;;;;;;;;;;;17.70;98.00;;;;;;5020878;28;20311;-77
2022/05/20 04:24:01;;;;;;;;;;;17.60;97.80;;;;;;5019789;28;20461;-77
2022/05/20 04:26:28;;;;;;;;;;;17.70;97.90;;;;;;5015557;28;19932;-77
2022/05/20 04:29:04;;;;;;;;;;;17.60;97.80;;;;;;5023514;28;19929;-77
2022/05/20 04:31:41;;;;;;;;;;;17.60;97.80;;;;;;5030702;28;19948;-76
2022/05/20 04:34:08;;;;;;;;;;;17.60;97.80;;;;;;5009452;28;19925;-77
2022/05/20 04:36:34;;;;;;;;;;;17.60;97.70;;;;;;5023676;28;19925;-77
2022/05/20 04:39:05;;;;;;;;;;;17.60;97.80;;;;;;5018824;28;20048;-76
2022/05/20 04:47:05;;;;;;;;;;;17.50;97.70;;;;;;5011644;28;19956;-78
2022/05/20 04:49:33;;;;;;;;;;;17.50;97.70;;;;;;5018214;28;19964;-76
2022/05/20 04:52:00;;;;;;;;;;;17.50;97.80;;;;;;5016444;28;20480;-76
2022/05/20 04:57:19;;;;;;;;;;;17.50;97.80;;;;;;5008815;28;19929;-76
2022/05/20 04:59:46;;;;;;;;;;;17.50;97.80;;;;;;5022410;28;19995;-77
2022/05/20 05:02:15;;;;;;;;;;;17.50;97.80;;;;;;5022886;28;20245;-78
2022/05/20 05:04:42;;;;;;;;;;;17.50;97.80;;;;;;5017502;28;19933;-76
2022/05/20 05:07:09;;;;;;;;;;;17.50;97.80;;;;;;5019922;28;20490;-76
2022/05/20 05:09:39;;;;;;;;;;;17.50;97.80;;;;;;5015908;28;19926;-79
2022/05/20 05:12:06;;;;;;;;;;;17.50;97.80;;;;;;5020571;28;19925;-78
2022/05/20 05:14:36;;;;;;;;;;;17.50;97.70;;;;;;5006985;28;20407;-78
2022/05/20 05:17:04;;;;;;;;;;;17.40;97.70;;;;;;5029983;28;19968;-78
2022/05/20 05:19:33;;;;;;;;;;;17.40;97.90;;;;;;5017574;28;19980;-77
2022/05/20 05:22:00;;;;;;;;;;;17.40;97.90;;;;;;5012150;28;19940;-77
2022/05/20 05:24:26;;;;;;;;;;;17.40;98.00;;;;;;5018939;28;19932;-77
2022/05/20 05:26:53;;;;;;;;;;;17.40;97.90;;;;;;5015879;28;20350;-77
2022/05/20 05:29:20;;;;;;;;;;;17.40;97.90;;;;;;5012620;28;19934;-77
2022/05/20 05:31:48;;;;;;;;;;;17.40;97.80;;;;;;5017157;28;19930;-77
2022/05/20 05:34:15;;;;;;;;;;;17.40;97.80;;;;;;5013975;28;20020;-77
2022/05/20 05:36:43;;;;;;;;;;;17.40;97.80;;;;;;5016271;28;19932;-77
2022/05/20 05:39:11;;;;;;;;;;;17.40;97.80;;;;;;5010490;28;20296;-77
2022/05/20 05:41:38;;;;;;;;;;;17.40;97.80;;;;;;5018505;28;19955;-76
2022/05/20 05:44:05;;;;;;;;;;;17.40;97.90;;;;;;5019885;28;20345;-76
2022/05/20 05:46:32;;;;;;;;;;;17.30;97.90;;;;;;5017925;28;20768;-76
2022/05/20 05:48:59;;;;;;;;;;;17.30;98.10;;;;;;5012906;28;20303;-75
2022/05/20 05:51:26;;;;;;;;;;;17.40;98.40;;;;;;5023891;28;19956;-77
2022/05/20 05:53:56;;;;;;;;;;;17.30;98.50;;;;;;5018647;28;19933;-77
2022/05/20 05:56:23;;;;;;;;;;;17.30;98.60;;;;;;5014615;28;19926;-77
2022/05/20 05:58:50;;;;;;;;;;;17.30;98.70;;;;;;5016553;28;20011;-76
2022/05/20 06:01:17;;;;;;;;;;;17.30;98.60;;;;;;5002332;28;19940;-76
2022/05/20 06:03:44;;;;;;;;;;;17.30;98.60;;;;;;5013487;28;19932;-76
2022/05/20 06:06:11;;;;;;;;;;;17.30;98.50;;;;;;5019775;28;20369;-76
2022/05/20 06:08:38;;;;;;;;;;;17.40;98.60;;;;;;5020111;28;20400;-78
2022/05/20 06:11:07;;;;;;;;;;;17.40;98.50;;;;;;5021737;28;19933;-76
2022/05/20 06:13:34;;;;;;;;;;;17.40;98.50;;;;;;5013689;28;20299;-76
2022/05/20 06:16:01;;;;;;;;;;;17.40;98.70;;;;;;5027005;28;19925;-77
2022/05/20 06:18:30;;;;;;;;;;;17.40;98.40;;;;;;5013010;28;19925;-77
2022/05/20 06:20:57;;;;;;;;;;;17.40;98.50;;;;;;5014400;28;20392;-76
2022/05/20 06:23:24;;;;;;;;;;;17.40;98.50;;;;;;5019424;28;19926;-76
2022/05/20 06:25:52;;;;;;;;;;;17.40;98.50;;;;;;5015102;28;19929;-77
2022/05/20 06:28:23;;;;;;;;;;;17.40;98.60;;;;;;5021854;28;20024;-78
2022/05/20 06:30:50;;;;;;;;;;;17.40;98.80;;;;;;5013648;28;19932;-76
2022/05/20 06:33:16;;;;;;;;;;;17.40;98.70;;;;;;5028385;28;19933;-76
2022/05/20 06:41:12;;;;;;;;;;;17.50;98.80;;;;;;5022402;28;19928;-76
2022/05/20 06:43:40;;;;;;;;;;;17.50;99.10;;;;;;5016251;28;19937;-76
2022/05/20 06:46:08;;;;;;;;;;;17.50;99.30;;;;;;5016656;28;19935;-76
2022/05/20 06:48:43;;;;;;;;;;;17.50;99.50;;;;;;5065387;22;19932;-76
2022/05/20 06:51:11;;;;;;;;;;;17.60;99.70;;;;;;5072657;28;19924;-75
2022/05/20 06:53:38;;;;;;;;;;;17.60;99.80;;;;;;5076765;28;20390;-75
2022/05/20 06:56:05;;;;;;;;;;;17.60;99.90;;;;;;5077430;28;19925;-76
2022/05/20 06:58:32;;;;;;;;;;;17.60;99.90;;;;;;5076763;28;20012;-76
2022/05/20 07:01:00;;;;;;;;;;;17.70;99.90;;;;;;5079433;28;19924;-75
2022/05/20 07:03:27;;;;;;;;;;;17.70;99.90;;;;;;5075366;28;19928;-76
2022/05/20 07:05:54;;;;;;;;;;;17.70;99.90;;;;;;5074713;28;19960;-75
2022/05/20 07:08:22;;;;;;;;;;;17.70;99.90;;;;;;5075298;28;19931;-76
2022/05/20 07:10:49;;;;;;;;;;;17.70;99.90;;;;;;5073996;28;20478;-75
2022/05/20 07:13:16;;;;;;;;;;;17.80;99.90;;;;;;5080341;28;19932;-76
2022/05/20 07:15:42;;;;;;;;;;;17.80;99.90;;;;;;5073992;28;20023;-75
2022/05/20 07:18:11;;;;;;;;;;;17.80;99.90;;;;;;5078320;28;20183;-76
2022/05/20 07:20:38;;;;;;;;;;;17.90;99.90;;;;;;5074569;28;20333;-76
2022/05/20 07:23:05;;;;;;;;;;;17.80;99.90;;;;;;5073294;28;19934;-75
2022/05/20 07:25:33;;;;;;;;;;;17.90;99.90;;;;;;5073405;28;20010;-76
2022/05/20 07:28:00;;;;;;;;;;;17.90;99.90;;;;;;5070934;28;19931;-75
2022/05/20 07:30:27;;;;;;;;;;;17.90;99.90;;;;;;5078275;28;19928;-76
2022/05/20 07:32:55;;;;;;;;;;;18.00;99.90;;;;;;5073203;28;19959;-75
2022/05/20 07:35:24;;;;;;;;;;;18.00;99.90;;;;;;5073068;28;19932;-76
2022/05/20 07:37:51;;;;;;;;;;;18.10;99.90;;;;;;5072723;28;19973;-75
2022/05/20 07:40:19;;;;;;;;;;;18.10;99.90;;;;;;5077600;28;20458;-76
2022/05/20 07:42:46;;;;;;;;;;;18.10;99.90;;;;;;5070512;28;19940;-76
2022/05/20 07:45:14;;;;;;;;;;;18.10;99.90;;;;;;5075384;28;19954;-76
2022/05/20 07:47:40;;;;;;;;;;;18.10;99.90;;;;;;5074929;28;19924;-76
2022/05/20 07:50:08;;;;;;;;;;;18.20;99.90;;;;;;5071268;28;19932;-76
2022/05/20 07:55:23;;;;;;;;;;;18.20;99.90;;;;;;5070599;28;20502;-76
2022/05/20 07:57:51;;;;;;;;;;;18.30;99.90;;;;;;5074165;28;20803;-75
2022/05/20 08:00:18;;;;;;;;;;;18.30;99.90;;;;;;5075133;28;19928;-76
2022/05/20 08:02:44;;;;;;;;;;;18.30;99.90;;;;;;5076319;28;20362;-75
2022/05/20 08:05:11;;;;;;;;;;;18.30;99.90;;;;;;5071577;28;19924;-76
2022/05/20 08:07:41;;;;;;;;;;;18.30;99.90;;;;;;5067682;28;19951;-76
2022/05/20 08:10:11;;;;;;;;;;;18.40;99.90;;;;;;5074117;28;19935;-75
2022/05/20 08:12:38;;;;;;;;;;;18.40;99.90;;;;;;5074935;28;19992;-76
2022/05/20 08:15:05;;;;;;;;;;;18.40;99.90;;;;;;5081998;28;20349;-76
2022/05/20 08:17:35;;;;;;;;;;;18.40;99.90;;;;;;5080402;28;20390;-75
2022/05/20 08:20:04;;;;;;;;;;;18.50;99.90;;;;;;5067987;28;19931;-76
2022/05/20 08:22:31;;;;;;;;;;;18.50;99.90;;;;;;5070300;28;19924;-75
2022/05/20 08:25:00;;;;;;;;;;;18.50;99.90;;;;;;5073972;28;20352;-75
2022/05/20 08:27:31;;;;;;;;;;;18.50;99.90;;;;;;5074025;28;19932;-75
2022/05/20 08:29:58;;;;;;;;;;;18.60;99.90;;;;;;5074898;28;19981;-75
2022/05/20 08:32:28;;;;;;;;;;;18.60;99.90;;;;;;5072867;28;19964;-76
2022/05/20 08:34:56;;;;;;;;;;;18.60;99.90;;;;;;5074187;28;20039;-76
2022/05/20 08:37:23;;;;;;;;;;;18.70;99.90;;;;;;5073504;28;19924;-76
2022/05/20 08:39:51;;;;;;;;;;;18.70;99.90;;;;;;5072280;28;19932;-75
2022/05/20 08:42:21;;;;;;;;;;;18.70;99.90;;;;;;5071692;28;19924;-76
2022/05/20 08:44:48;;;;;;;;;;;18.80;99.90;;;;;;5081019;28;19935;-75
2022/05/20 08:47:24;;;;;;;;;;;18.80;99.90;;;;;;5073840;28;21566;-75
2022/05/20 08:49:54;;;;;;;;;;;18.80;99.90;;;;;;5071536;28;20383;-75
2022/05/20 08:52:21;;;;;;;;;;;18.80;99.90;;;;;;5074302;28;19932;-76
2022/05/20 08:54:48;;;;;;;;;;;18.80;99.90;;;;;;5076203;28;19928;-75
2022/05/20 08:57:19;;;;;;;;;;;18.90;99.90;;;;;;5085517;28;19924;-75
2022/05/20 08:59:48;;;;;;;;;;;18.90;99.90;;;;;;5075358;28;19924;-75
2022/05/20 09:02:15;;;;;;;;;;;18.90;99.90;;;;;;5076804;28;20420;-75
2022/05/20 09:04:42;;;;;;;;;;;18.90;99.90;;;;;;5073727;28;20220;-74
2022/05/20 09:07:11;;;;;;;;;;;19.00;99.90;;;;;;5070324;28;19924;-75
2022/05/20 09:09:43;;;;;;;;;;;19.00;99.90;;;;;;5072549;28;20027;-76
2022/05/20 09:12:11;;;;;;;;;;;19.00;99.90;;;;;;5077936;28;19969;-75
2022/05/20 09:17:25;;;;;;;;;;;19.10;99.90;;;;;;5072006;28;20390;-75
2022/05/20 09:19:59;;;;;;;;;;;19.10;99.90;;;;;;5077391;28;19925;-75
2022/05/20 09:22:26;;;;;;;;;;;19.20;99.90;;;;;;5074144;28;19932;-75
2022/05/20 09:24:54;;;;;;;;;;;19.20;99.90;;;;;;5074280;28;20407;-76
2022/05/20 09:27:26;;;;;;;;;;;19.20;99.90;;;;;;5077599;28;19931;-76
2022/05/20 09:29:56;;;;;;;;;;;19.20;99.90;;;;;;5077427;28;19930;-76
2022/05/20 09:32:27;;;;;;;;;;;19.30;99.90;;;;;;5074885;28;19939;-76
2022/05/20 09:34:56;;;;;;;;;;;19.30;99.90;;;;;;5070140;28;19925;-76
2022/05/20 09:37:26;;;;;;;;;;;19.30;99.90;;;;;;5070469;28;20670;-76
2022/05/20 09:39:53;;;;;;;;;;;19.40;99.90;;;;;;5076068;28;19924;-76
2022/05/20 09:42:23;;;;;;;;;;;19.40;99.90;;;;;;5073170;28;21438;-76
2022/05/20 09:44:51;;;;;;;;;;;19.40;99.90;;;;;;5069068;28;20386;-76
2022/05/20 09:47:24;;;;;;;;;;;19.40;99.90;;;;;;5070718;28;19950;-76
2022/05/20 09:49:53;;;;;;;;;;;19.50;99.90;;;;;;5076265;28;20282;-76
2022/05/20 09:52:27;;;;;;;;;;;19.50;99.90;;;;;;5076266;28;20382;-76
2022/05/20 09:55:05;;;;;;;;;;;19.50;99.90;;;;;;5069656;28;19947;-76
2022/05/20 09:57:36;;;;;;;;;;;19.60;99.90;;;;;;5074808;28;20352;-75
2022/05/20 10:00:05;;;;;;;;;;;19.60;99.90;;;;;;5068118;28;20001;-75
2022/05/20 10:02:43;;;;;;;;;;;19.60;99.90;;;;;;5075870;28;19932;-75
2022/05/20 10:05:13;;;;;;;;;;;19.70;99.90;;;;;;5069695;28;19928;-76
2022/05/20 10:07:49;;;;;;;;;;;19.70;99.90;;;;;;5072542;28;19924;-75
2022/05/20 10:10:19;;;;;;;;;;;19.70;99.90;;;;;;5071877;28;19930;-74
2022/05/20 10:12:46;;;;;;;;;;;;;;;;;;5072331;28;20070;-76
2022/05/20 10:15:18;;;;;;;;;;;19.70;99.90;;;;;;5075162;28;19929;-76
2022/05/20 10:17:53;;;;;;;;;;;19.80;99.90;;;;;;5084886;28;20368;-76
2022/05/20 10:20:25;;;;;;;;;;;19.80;99.90;;;;;;5072462;28;21235;-81
2022/05/20 10:22:56;;;;;;;;;;;19.80;99.90;;;;;;5075238;28;19928;-84
2022/05/20 10:25:29;;;;;;;;;;;19.80;99.90;;;;;;5086797;28;20401;-83
2022/05/20 10:27:57;;;;;;;;;;;;;;;;;;5080550;28;19962;-81
2022/05/20 10:33:13;;;;;;;;;;;19.90;99.90;;;;;;5080315;28;20406;-81
2022/05/20 10:35:49;;;;;;;;;;;20.00;99.90;;;;;;5077378;28;19924;-82
2022/05/20 10:38:32;;;;;;;;;;;20.00;99.90;;;;;;5070051;28;20019;-78
2022/05/20 10:41:00;;;;;;;;;;;20.00;99.90;;;;;;5080136;28;19972;-84
2022/05/20 10:48:34;;;;;;;;;;;20.10;99.90;;;;;;5073089;28;19928;-78
2022/05/20 10:49:13;;;;;;;;;;;20.20;99.90;;;;;;5072370;28;19920;-76
2022/05/20 10:52:03;;;;;;;;;;;20.20;99.90;;;;;;5074824;28;19968;-80
2022/05/20 10:54:48;;;;;;;;;;;20.20;99.90;;;;;;5070570;28;19947;-76
2022/05/20 10:57:22;;;;;;;;;;;20.20;99.90;;;;;;5073947;28;19967;-76
2022/05/20 11:00:01;;;;;;;;;;;20.30;99.90;;;;;;5068986;28;19936;-75
2022/05/20 11:02:37;;;;;;;;;;;20.30;99.90;;;;;;5068304;28;19934;-75
2022/05/20 11:05:12;;;;;;;;;;;20.30;99.90;;;;;;5075479;28;19958;-75
2022/05/20 11:07:56;;;;;;;;;;;20.40;99.90;;;;;;5069691;28;19938;-75
2022/05/20 11:10:27;;;;;;;;;;;20.40;99.90;;;;;;5076398;28;20122;-75
2022/05/20 11:12:58;;;;;;;;;;;20.40;99.90;;;;;;5074755;28;19963;-76
2022/05/20 11:15:33;;;;;;;;;;;20.50;99.90;;;;;;5071856;28;19933;-76
2022/05/20 11:18:15;;;;;;;;;;;20.50;99.90;;;;;;5073309;28;19927;-78
2022/05/20 11:21:06;;;;;;;;;;;20.50;99.90;;;;;;5081720;28;20328;-81
2022/05/20 11:23:43;;;;;;;;;;;20.60;99.90;;;;;;5083454;28;19924;-76
2022/05/20 11:26:25;;;;;;;;;;;20.70;99.90;;;;;;5074996;28;19972;-76
2022/05/20 11:29:10;;;;;;;;;;;20.70;99.90;;;;;;5074212;28;19972;-75
2022/05/20 11:31:44;;;;;;;;;;;20.80;99.90;;;;;;5079377;28;20347;-75
2022/05/20 11:34:21;;;;;;;;;;;20.70;99.90;;;;;;5078172;28;19956;-75
2022/05/20 11:37:00;;;;;;;;;;;20.80;99.90;;;;;;5079791;28;19940;-75
2022/05/20 11:39:37;;;;;;;;;;;20.80;99.90;;;;;;5073983;28;19928;-76
2022/05/20 11:42:15;;;;;;;;;;;20.80;99.90;;;;;;5069642;28;19932;-75
2022/05/20 11:44:50;;;;;;;;;;;20.90;99.90;;;;;;5063494;28;19932;-75
2022/05/20 11:47:27;;;;;;;;;;;21.10;99.90;;;;;;5074186;28;20182;-77
2022/05/20 11:50:02;;;;;;;;;;;21.20;99.90;;;;;;5068992;28;19984;-75
2022/05/20 11:52:44;;;;;;;;;;;21.20;99.90;;;;;;5066810;28;19931;-75
2022/05/20 11:55:16;;;;;;;;;;;21.20;99.90;;;;;;5071619;28;20041;-74
2022/05/20 11:57:44;;;;;;;;;;;21.20;99.90;;;;;;5070510;28;19985;-74
2022/05/20 12:00:13;;;;;;;;;;;21.20;99.90;;;;;;5077032;28;19924;-75
2022/05/20 12:02:43;;;;;;;;;;;21.20;99.90;;;;;;5080612;28;19974;-75
2022/05/20 12:05:11;;;;;;;;;;;21.20;99.90;;;;;;5071958;28;19934;-75
2022/05/20 12:07:38;;;;;;;;;;;21.30;99.90;;;;;;5078057;28;20042;-75
2022/05/20 12:10:19;;;;;;;;;;;21.30;99.90;;;;;;5082530;28;20359;-75
2022/05/20 12:12:54;;;;;;;;;;;21.30;99.90;;;;;;5078887;28;19924;-76
2022/05/20 12:15:42;;;;;;;;;;;21.40;99.90;;;;;;5064745;28;20433;-75
2022/05/20 12:24:11;;;;;;;;;;;21.40;99.90;;;;;;5072792;28;19960;-76
2022/05/20 12:24:19;;;;;;;;;;;21.50;99.90;;;;;;5068275;28;19920;-75
2022/05/20 12:26:49;;;;;;;;;;;21.50;99.90;;;;;;5069962;28;20298;-75
2022/05/20 12:32:33;;;;;;;;;;;21.60;99.90;;;;;;5058897;28;19932;-75
2022/05/20 12:35:07;;;;;;;;;;;21.70;99.90;;;;;;5054346;28;19935;-75
2022/05/20 12:37:52;;;;;;;;;;;21.70;99.90;;;;;;5068752;28;19925;-74
2022/05/20 12:40:21;;;;;;;;;;;21.80;99.90;;;;;;5072332;28;20212;-76
2022/05/20 12:43:00;;;;;;;;;;;21.90;99.90;;;;;;5079391;28;19924;-75
2022/05/20 12:45:28;;;;;;;;;;;21.90;99.90;;;;;;5068310;28;19936;-75
2022/05/20 12:47:55;;;;;;;;;;;21.90;99.90;;;;;;5073600;28;19939;-75
2022/05/20 12:50:25;;;;;;;;;;;22.00;99.90;;;;;;5083047;28;19947;-75
2022/05/20 12:52:52;;;;;;;;;;;22.10;99.90;;;;;;5079284;28;19977;-75
2022/05/20 12:55:22;;;;;;;;;;;22.10;99.90;;;;;;5073579;28;19932;-75
2022/05/20 12:57:51;;;;;;;;;;;22.10;99.90;;;;;;5074106;28;20308;-75
2022/05/20 13:00:24;;;;;;;;;;;22.20;99.90;;;;;;5070111;28;19932;-75
2022/05/20 13:02:53;;;;;;;;;;;22.20;99.90;;;;;;5071537;28;20409;-75
2022/05/20 13:05:23;;;;;;;;;;;22.30;99.90;;;;;;5075233;28;19963;-75
2022/05/20 13:07:52;;;;;;;;;;;22.40;99.90;;;;;;5076510;28;20331;-75
2022/05/20 13:10:27;;;;;;;;;;;22.40;99.90;;;;;;5074919;28;19924;-75
2022/05/20 13:12:58;;;;;;;;;;;22.50;99.90;;;;;;5071858;28;19932;-75
2022/05/20 13:15:25;;;;;;;;;;;22.60;99.90;;;;;;5072352;28;19935;-73
2022/05/20 13:17:58;;;;;;;;;;;22.60;99.90;;;;;;5074432;28;19931;-75
2022/05/20 13:20:30;;;;;;;;;;;22.70;99.90;;;;;;5073354;28;20021;-74
2022/05/20 13:22:58;;;;;;;;;;;;;;;;;;5072881;28;19932;-74
2022/05/20 13:25:25;;;;;;;;;;;22.80;99.90;;;;;;5074337;28;20574;-74
2022/05/20 13:27:52;;;;;;;;;;;22.80;99.90;;;;;;5068861;28;19932;-75
2022/05/20 13:30:21;;;;;;;;;;;22.90;99.90;;;;;;5073031;28;20305;-75
2022/05/20 13:32:49;;;;;;;;;;;22.90;99.90;;;;;;5069143;28;19967;-75
2022/05/20 13:35:15;;;;;;;;;;;23.00;99.90;;;;;;5085248;22;19968;-76
2022/05/20 13:40:31;;;;;;;;;;;23.10;99.90;;;;;;5097430;27;19922;-75
2022/05/20 13:42:59;;;;;;;;;;;23.20;99.90;;;;;;5077335;28;19932;-78
2022/05/20 13:50:58;;;;;;;;;;;23.90;98.20;;;;;;5075989;28;19920;-76
2022/05/20 13:53:25;;;;;;;;;;;24.00;97.20;;;;;;5082955;28;19932;-77
2022/05/20 13:55:54;;;;;;;;;;;24.10;96.80;;;;;;5079301;28;19931;-76
2022/05/20 13:58:22;;;;;;;;;;;24.20;95.70;;;;;;5072731;28;21423;-74
2022/05/20 14:00:50;;;;;;;;;;;24.40;95.60;;;;;;5081018;28;19933;-75
2022/05/20 14:03:19;;;;;;;;;;;24.40;95.50;;;;;;5078085;28;19937;-74
2022/05/20 14:05:48;;;;;;;;;;;24.50;94.60;;;;;;5078852;28;19931;-75
2022/05/20 14:08:18;;;;;;;;;;;24.60;94.40;;;;;;5074753;28;19924;-73
2022/05/20 14:10:47;;;;;;;;;;;24.70;94.00;;;;;;5087072;28;20027;-74
2022/05/20 14:13:22;;;;;;;;;;;24.60;94.60;;;;;;5074489;28;19936;-76
2022/05/20 14:15:51;;;;;;;;;;;24.60;95.60;;;;;;5075041;28;19932;-75
2022/05/20 14:18:22;;;;;;;;;;;24.50;96.20;;;;;;5074362;28;19925;-75
2022/05/20 14:20:50;;;;;;;;;;;24.50;96.10;;;;;;5079449;28;19925;-77
2022/05/20 14:23:19;;;;;;;;;;;24.60;96.60;;;;;;5073085;28;20366;-75
2022/05/20 14:25:51;;;;;;;;;;;24.60;96.60;;;;;;5077010;28;19924;-74
2022/05/20 14:28:21;;;;;;;;;;;24.60;96.50;;;;;;5074218;28;20016;-75
2022/05/20 14:30:49;;;;;;;;;;;24.70;96.70;;;;;;5077231;28;19928;-74
2022/05/20 14:33:19;;;;;;;;;;;24.70;96.40;;;;;;5080145;28;19932;-75
2022/05/20 14:35:48;;;;;;;;;;;24.80;95.90;;;;;;5076290;28;20436;-74
2022/05/20 14:38:18;;;;;;;;;;;24.90;95.80;;;;;;5075700;28;20353;-75
2022/05/20 14:40:50;;;;;;;;;;;24.90;95.90;;;;;;5077393;28;20385;-74
2022/05/20 14:43:21;;;;;;;;;;;24.90;95.80;;;;;;5073573;28;20011;-74
2022/05/20 14:45:55;;;;;;;;;;;24.90;95.90;;;;;;5080724;28;20302;-74
2022/05/20 14:48:26;;;;;;;;;;;25.00;95.90;;;;;;5072990;28;20320;-73
2022/05/20 14:50:53;;;;;;;;;;;25.00;96.00;;;;;;5065572;28;20006;-76
2022/05/20 14:53:23;;;;;;;;;;;25.10;95.70;;;;;;5093368;28;19932;-74
2022/05/20 14:58:27;;;;;;;;;;;25.20;95.70;;;;;;5076043;28;20398;-74
2022/05/20 15:01:08;;;;;;;;;;;25.20;95.00;;;;;;5041672;28;20353;-74
2022/05/20 15:03:36;;;;;;;;;;;25.20;95.00;;;;;;5046922;28;19940;-75
2022/05/20 15:06:04;;;;;;;;;;;25.30;95.30;;;;;;5044170;28;19932;-74
2022/05/20 15:08:32;;;;;;;;;;;25.40;94.70;;;;;;5041842;28;20416;-76
2022/05/20 15:11:02;;;;;;;;;;;25.50;94.00;;;;;;5047971;28;19933;-74
2022/05/20 15:13:29;;;;;;;;;;;25.50;94.30;;;;;;5041499;28;19940;-75
2022/05/20 15:15:58;;;;;;;;;;;25.50;94.20;;;;;;5044676;28;20294;-75
2022/05/20 15:18:24;;;;;;;;;;;25.50;94.00;;;;;;5044625;28;20418;-74
2022/05/20 15:20:53;;;;;;;;;;;25.50;93.70;;;;;;5044884;28;19998;-74
2022/05/20 15:23:21;;;;;;;;;;;25.60;93.70;;;;;;5039532;28;20022;-75
2022/05/20 15:25:49;;;;;;;;;;;25.60;93.60;;;;;;5046240;28;20020;-74
2022/05/20 15:36:31;;;;;;;;;;;25.80;92.70;;;;;;5036821;28;20015;-74
2022/05/20 15:38:58;;;;;;;;;;;25.80;92.60;;;;;;5042003;28;20023;-74
2022/05/20 15:41:27;;;;;;;;;;;25.80;92.20;;;;;;5044039;28;19956;-75
2022/05/20 15:43:54;;;;;;;;;;;25.90;92.30;;;;;;5040723;28;19925;-74
2022/05/20 15:46:22;;;;;;;;;;;25.90;92.60;;;;;;5036798;28;19932;-75
2022/05/20 15:48:49;;;;;;;;;;;25.90;92.10;;;;;;5039345;28;20024;-75